CheckWX is a tool to help pilots better visualize weather data.  It is not intended as a substitute for an official pre-flight weather briefing.

04:44:09 UTC

ZWWW TAF
Ürümqi Diwopu International Airport
Ürümqi, China
TAF ZWWW 222105Z 2300/2324 18003MPS CAVOK TX10/2309Z TN02/2323Z BECMG 2303/2304 36003MPS BECMG 2313/2314 18003MPS

Mar-23@
00:00 UTC

Mar-23 @ 00:00 UTC

Mar-23@
03:00 UTC

Mar-23 @ 03:00 UTC

TAF ZWWW 222105Z 2300/2324 18003MPS CAVOK TX10/2309Z TN02/2323Z

Expired

Wind
  • 180° at 6 KTS
Cloud Levels
  • No significant clouds

Mar-23@
03:00 UTC

Mar-23 @ 03:00 UTC

Mar-23@
13:00 UTC

Mar-23 @ 13:00 UTC

BECMG 2303/2304 36003MPS

Becoming

Becoming Conditions expected by Sat, Mar 23, 2019 @ 04:00 UTC

Wind
  • 360° at 6 KTS
Cloud Levels
  • No significant clouds

Mar-23@
13:00 UTC

Mar-23 @ 13:00 UTC

Mar-24@
00:00 UTC

Mar-24 @ 00:00 UTC

BECMG 2313/2314 18003MPS

Becoming

Becoming Conditions expected by Sat, Mar 23, 2019 @ 14:00 UTC

Wind
  • 180° at 6 KTS
Cloud Levels
  • No significant clouds